Time;durP1;ratioP1;P1;durP2;ratioP2;P2;SDS_P1;SDS_P2;PMS_P1;PMS_P2;Temp;Humidity;BMP_temperature;BMP_pressure;BME280_temperature;BME280_humidity;BME280_pressure;Samples;Min_cycle;Max_cycle;Signal;HPM_P1;HPM_P2
2023/06/16 00:04:09;;;;;;;5.82;4.15;;;15.10;24.00;;;;;;12487963;23;20296;-77
2023/06/16 00:09:30;;;;;;;5.78;5.18;;;15.00;8.80;;;;;;12508814;23;20177;-77
2023/06/16 00:14:51;;;;;;;6.63;5.30;;;14.90;99.90;;;;;;12507412;23;20178;-76
2023/06/16 00:20:14;;;;;;;7.75;4.75;;;14.90;1.00;;;;;;12527888;23;20217;-77
2023/06/16 00:25:35;;;;;;;5.10;4.60;;;14.80;99.90;;;;;;12508918;23;20194;-77
2023/06/16 00:30:57;;;;;;;5.57;4.80;;;14.70;1.00;;;;;;12527645;23;20168;-77
2023/06/16 00:36:18;;;;;;;6.20;4.40;;;14.70;1.00;;;;;;12508173;23;20171;-77
2023/06/16 00:41:39;;;;;;;5.05;4.28;;;14.60;99.90;;;;;;12508590;23;20174;-77
2023/06/16 00:47:01;;;;;;;4.90;4.40;;;14.60;1.00;;;;;;12613074;23;20195;-77
2023/06/16 00:52:27;;;;;;;6.00;4.47;;;14.50;1.00;;;;;;12509808;23;20360;-77
2023/06/16 00:57:50;;;;;;;6.75;4.35;;;14.50;1.00;;;;;;12510864;23;20178;-77
2023/06/16 01:03:13;;;;;;;5.82;4.75;;;14.50;99.90;;;;;;12509650;23;20175;-78
2023/06/16 01:08:42;;;;;;;7.85;5.65;;;14.50;28.40;;;;;;12509307;23;20195;-77
2023/06/16 01:14:27;;;;;;;21.75;8.73;;;14.40;1.00;;;;;;12510353;23;20354;-77
2023/06/16 01:20:01;;;;;;;13.48;7.60;;;14.30;1.00;;;;;;12510408;23;20488;-76
2023/06/16 01:25:28;;;;;;;11.00;7.70;;;14.30;99.90;;;;;;12489329;23;20202;-76
2023/06/16 01:30:52;;;;;;;11.10;7.82;;;14.20;99.90;;;;;;12510212;23;20392;-78
2023/06/16 01:36:15;;;;;;;12.23;8.20;;;14.30;35.30;;;;;;12510172;23;20172;-77
2023/06/16 01:41:37;;;;;;;8.70;7.07;;;14.30;99.90;;;;;;12510096;23;20167;-77
2023/06/16 01:46:59;;;;;;;7.47;6.60;;;14.30;99.90;;;;;;12510448;23;20194;-77
2023/06/16 01:52:21;;;;;;;8.07;7.00;;;14.40;99.90;;;;;;12508876;23;20182;-76
2023/06/16 01:57:42;;;;;;;6.78;6.07;;;14.30;99.90;;;;;;12510354;23;20178;-77
2023/06/16 02:03:11;;;;;;;6.80;5.57;;;14.30;99.90;;;;;;12509121;23;20233;-76
2023/06/16 02:08:34;;;;;;;7.50;5.78;;;14.40;99.90;;;;;;12509061;23;20194;-77
2023/06/16 02:13:56;;;;;;;7.55;6.85;;;14.30;99.90;;;;;;12508733;23;20167;-77
2023/06/16 02:19:17;;;;;;;7.78;6.78;;;14.20;99.90;;;;;;12508676;23;20351;-77
2023/06/16 02:24:38;;;;;;;8.60;6.80;;;14.20;99.90;;;;;;12509856;23;20176;-78
2023/06/16 02:30:00;;;;;;;6.80;6.15;;;14.20;99.90;;;;;;12508995;23;20221;-77
2023/06/16 02:35:21;;;;;;;7.65;6.43;;;14.20;99.90;;;;;;12507925;23;20219;-76
2023/06/16 02:40:42;;;;;;;8.25;7.05;;;14.20;99.90;;;;;;12508577;23;20296;-77
2023/06/16 02:46:04;;;;;;;8.23;7.13;;;14.20;99.90;;;;;;12488244;23;20432;-77
2023/06/16 02:51:25;;;;;;;8.55;7.65;;;14.20;99.90;;;;;;12508113;23;20180;-77
2023/06/16 02:56:46;;;;;;;9.25;7.25;;;14.20;99.90;;;;;;12488865;23;20178;-77
2023/06/16 03:02:09;;;;;;;9.98;8.00;;;14.20;99.90;;;;;;12528912;23;20194;-77
2023/06/16 03:07:40;;;;;;;11.45;8.68;;;14.20;99.90;;;;;;12508342;23;20195;-76
2023/06/16 03:13:01;;;;;;;11.35;9.43;;;14.20;99.90;;;;;;12508017;23;20192;-76
2023/06/16 03:18:23;;;;;;;10.60;9.23;;;14.20;99.90;;;;;;12633312;23;20528;-77
2023/06/16 03:23:45;;;;;;;8.98;8.07;;;14.20;99.90;;;;;;12468480;23;20180;-77
2023/06/16 03:29:07;;;;;;;8.35;7.55;;;14.30;99.90;;;;;;12488431;23;20387;-77
2023/06/16 03:34:30;;;;;;;9.45;7.75;;;14.30;99.90;;;;;;12507896;23;20693;-77
2023/06/16 03:39:51;;;;;;;11.55;8.75;;;14.40;99.90;;;;;;12508078;23;20208;-76
2023/06/16 03:45:13;;;;;;;11.07;7.88;;;14.40;99.90;;;;;;12507973;23;20183;-76
2023/06/16 03:50:35;;;;;;;10.82;8.95;;;14.40;99.90;;;;;;12527649;23;20193;-77
2023/06/16 03:55:56;;;;;;;11.50;9.15;;;14.50;99.90;;;;;;12507896;23;20170;-76
2023/06/16 04:01:22;;;;;;;11.40;8.75;;;14.50;99.90;;;;;;12508187;23;20171;-77
2023/06/16 04:06:44;;;;;;;8.63;7.65;;;14.50;99.90;;;;;;12507233;23;20215;-76
2023/06/16 04:12:05;;;;;;;9.82;6.82;;;14.50;99.90;;;;;;12487624;23;20173;-77
2023/06/16 04:17:28;;;;;;;7.95;6.53;;;14.50;99.90;;;;;;12571826;23;20203;-77
2023/06/16 04:22:50;;;;;;;9.13;7.72;;;14.40;99.90;;;;;;12613630;23;20167;-77
2023/06/16 04:28:14;;;;;;;7.13;6.28;;;14.50;99.90;;;;;;12509771;23;20199;-76
2023/06/16 04:33:41;;;;;;;5.93;5.32;;;14.50;99.90;;;;;;12529126;23;20197;-75
2023/06/16 04:39:05;;;;;;;10.30;7.80;;;14.60;1.00;;;;;;12595513;23;20469;-76
2023/06/16 04:44:26;;;;;;;7.05;6.13;;;14.60;1.00;;;;;;12509607;23;20170;-76
2023/06/16 04:49:47;;;;;;;8.52;6.05;;;14.80;99.90;;;;;;12508753;23;20527;-76
2023/06/16 04:55:09;;;;;;;6.88;6.10;;;14.90;99.90;;;;;;12529934;23;20177;-77
2023/06/16 05:00:30;;;;;;;8.30;6.45;;;15.00;95.80;;;;;;12489295;23;20183;-76
2023/06/16 05:05:52;;;;;;;8.55;6.75;;;15.10;1.00;;;;;;12507698;23;20223;-77
2023/06/16 05:11:13;;;;;;;6.85;6.00;;;15.00;1.00;;;;;;12510703;23;20167;-77
2023/06/16 05:16:35;;;;;;;8.60;6.22;;;15.10;1.00;;;;;;12509434;23;20171;-76
2023/06/16 05:21:56;;;;;;;6.88;6.20;;;15.20;1.00;;;;;;12508598;23;20382;-78
2023/06/16 05:27:22;;;;;;;7.43;6.15;;;15.20;1.00;;;;;;12509256;23;20220;-77
2023/06/16 05:32:45;;;;;;;7.18;6.47;;;15.40;1.00;;;;;;12615373;23;20197;-78
2023/06/16 05:38:07;;;;;;;8.52;7.20;;;15.60;99.90;;;;;;12508834;23;20173;-77
2023/06/16 05:43:29;;;;;;;6.97;6.20;;;15.60;1.00;;;;;;12509344;23;20178;-75
2023/06/16 05:48:51;;;;;;;9.15;8.00;;;15.70;1.00;;;;;;12508279;23;20553;-76
2023/06/16 05:54:14;;;;;;;8.05;6.50;;;15.90;1.00;;;;;;12509166;23;20171;-74
2023/06/16 05:59:36;;;;;;;7.50;6.20;;;16.10;1.00;;;;;;12508985;23;20489;-76
2023/06/16 06:04:57;;;;;;;9.75;8.00;;;16.20;1.10;;;;;;12633631;23;20181;-77
2023/06/16 06:10:19;;;;;;;7.22;6.15;;;16.20;1.00;;;;;;12510361;23;20229;-78
2023/06/16 06:15:42;;;;;;;10.35;7.25;;;16.20;1.00;;;;;;12508694;23;20171;-77
2023/06/16 06:21:06;;;;;;;14.35;9.90;;;16.40;1.00;;;;;;12508631;23;20166;-76
2023/06/16 06:26:28;;;;;;;7.50;6.63;;;16.60;1.00;;;;;;12508247;23;20437;-77
2023/06/16 06:31:49;;;;;;;12.80;8.80;;;16.70;99.90;;;;;;12633001;23;20269;-75
2023/06/16 06:37:16;;;;;;;10.93;8.07;;;16.70;99.90;;;;;;12509302;23;20489;-75
2023/06/16 06:42:40;;;;;;;8.85;7.95;;;16.80;1.00;;;;;;12508569;23;20247;-77
2023/06/16 06:48:17;;;;;;;10.30;7.78;;;16.90;99.90;;;;;;12507382;23;20235;-76
2023/06/16 06:53:41;;;;;;;8.60;7.50;;;17.30;1.00;;;;;;12508015;23;20270;-77
2023/06/16 06:59:02;;;;;;;11.20;10.00;;;17.60;1.00;;;;;;12509736;23;20539;-76
2023/06/16 07:04:25;;;;;;;9.57;8.68;;;17.80;99.90;;;;;;12508897;23;20164;-76
2023/06/16 07:09:46;;;;;;;12.48;8.73;;;18.00;1.00;;;;;;12508466;23;20203;-76
2023/06/16 07:15:08;;;;;;;7.00;6.30;;;18.00;99.90;;;;;;12509106;23;20493;-77
2023/06/16 07:20:29;;;;;;;10.50;7.25;;;17.90;99.90;;;;;;12508848;23;20395;-76
2023/06/16 07:25:50;;;;;;;11.40;8.48;;;17.90;99.90;;;;;;12508141;23;20188;-77
2023/06/16 07:31:12;;;;;;;9.90;7.95;;;18.00;1.00;;;;;;12507683;23;20168;-76
2023/06/16 07:36:33;;;;;;;12.48;9.90;;;17.80;99.90;;;;;;12467677;23;20377;-77
2023/06/16 07:41:55;;;;;;;10.45;9.35;;;17.70;99.90;;;;;;12500019;23;20355;-78
2023/06/16 07:47:16;;;;;;;10.95;9.20;;;17.70;1.00;;;;;;12522588;23;20200;-80
2023/06/16 07:52:38;;;;;;;11.88;8.65;;;17.60;99.90;;;;;;12481739;23;20514;-82
2023/06/16 07:57:59;;;;;;;11.52;9.30;;;17.80;1.00;;;;;;12500310;23;20243;-75
2023/06/16 08:03:21;;;;;;;9.73;7.43;;;17.90;48.90;;;;;;12500549;23;20188;-76
2023/06/16 08:08:43;;;;;;;11.77;8.05;;;18.50;1.00;;;;;;12503436;23;20211;-76
2023/06/16 08:14:04;;;;;;;12.57;7.60;;;18.60;99.90;;;;;;12626081;23;20180;-78
2023/06/16 08:19:25;;;;;;;8.30;7.45;;;18.60;1.00;;;;;;12501918;23;20182;-78
2023/06/16 08:24:47;;;;;;;9.80;8.43;;;18.70;99.90;;;;;;12502521;23;20364;-79
2023/06/16 08:30:09;;;;;;;10.73;8.05;;;18.80;36.80;;;;;;12501575;23;20425;-78
2023/06/16 08:35:30;;;;;;;9.32;7.10;;;19.10;1.00;;;;;;12500586;23;20204;-82
2023/06/16 08:40:52;;;;;;;7.50;6.68;;;19.20;1.00;;;;;;12501040;23;20183;-76
2023/06/16 08:46:13;;;;;;;10.30;6.00;;;19.80;1.00;;;;;;12503088;23;20249;-79
2023/06/16 08:51:37;;;;;;;7.50;6.63;;;20.60;99.90;;;;;;12501383;23;20245;-87
2023/06/16 08:57:01;;;;;;;7.65;6.95;;;21.70;1.00;;;;;;12502699;23;20188;-79
2023/06/16 09:02:23;;;;;;;6.65;5.65;;;22.50;1.00;;;;;;12502259;23;20295;-75
2023/06/16 09:07:45;;;;;;;8.85;6.80;;;22.50;1.00;;;;;;12501945;23;20214;-79
2023/06/16 09:13:07;;;;;;;7.10;6.05;;;22.60;1.00;;;;;;12503104;23;20164;-77
2023/06/16 09:18:41;;;;;;;7.63;5.30;;;22.00;1.00;;;;;;12503861;23;20363;-80
2023/06/16 09:24:03;;;;;;;6.28;5.22;;;22.20;1.00;;;;;;12505394;23;20235;-80
2023/06/16 09:29:26;;;;;;;7.15;5.32;;;23.00;1.00;;;;;;12501727;23;20577;-75
2023/06/16 09:34:47;;;;;;;6.22;5.50;;;24.00;1.00;;;;;;12504023;23;20207;-75
2023/06/16 09:40:09;;;;;;;6.35;5.75;;;24.40;1.00;;;;;;12503976;23;20485;-79
2023/06/16 09:45:31;;;;;;;8.32;5.00;;;23.80;1.00;;;;;;12503940;23;20202;-84
2023/06/16 09:50:55;;;;;;;5.05;4.55;;;24.20;99.90;;;;;;12503838;23;20177;-77
2023/06/16 09:56:17;;;;;;;8.23;5.43;;;25.00;99.90;;;;;;12503020;23;20364;-75
2023/06/16 10:01:43;;;;;;;6.03;5.00;;;25.80;99.90;;;;;;12503099;23;20172;-80
2023/06/16 10:07:07;;;;;;;8.55;5.38;;;25.60;99.90;;;;;;12504802;23;20192;-83
2023/06/16 10:12:32;;;;;;;5.65;4.60;;;26.00;1.00;;;;;;12504843;23;20500;-86
2023/06/16 10:18:03;;;;;;;6.80;4.57;;;25.90;99.90;;;;;;12502098;23;20172;-79
2023/06/16 10:23:26;;;;;;;6.63;4.47;;;26.20;99.90;;;;;;12504432;23;20173;-77
2023/06/16 10:28:49;;;;;;;6.15;5.00;;;26.20;99.90;;;;;;12503799;23;20226;-76
2023/06/16 10:34:19;;;;;;;5.80;5.30;;;25.60;99.90;;;;;;12502920;23;20510;-76
2023/06/16 10:39:45;;;;;;;7.97;5.55;;;25.20;99.90;;;;;;12502833;23;20173;-79
2023/06/16 10:45:26;;;;;;;5.90;5.35;;;24.90;99.90;;;;;;12503734;23;20164;-78
2023/06/16 10:50:59;;;;;;;7.45;5.45;;;24.40;99.90;;;;;;12503390;23;20494;-78
2023/06/16 10:56:21;;;;;;;6.07;5.07;;;23.80;99.90;;;;;;12626661;23;20424;-77
2023/06/16 11:01:46;;;;;;;7.05;5.93;;;24.30;99.90;;;;;;12502700;23;20172;-76
2023/06/16 11:07:09;;;;;;;6.55;5.60;;;24.30;99.90;;;;;;12502944;23;20207;-77
2023/06/16 11:12:33;;;;;;;9.10;6.10;;;23.90;99.90;;;;;;12503486;23;20167;-77
2023/06/16 11:17:55;;;;;;;5.32;4.30;;;24.30;99.90;;;;;;12501997;23;20168;-78
2023/06/16 11:23:16;;;;;;;7.93;4.60;;;25.10;99.90;;;;;;12501951;23;20499;-77
2023/06/16 11:28:41;;;;;;;7.45;4.70;;;25.70;99.90;;;;;;12503290;23;20200;-77
2023/06/16 11:34:04;;;;;;;8.88;5.20;;;25.60;99.90;;;;;;12503164;23;20196;-78
2023/06/16 11:39:25;;;;;;;7.90;4.35;;;25.50;99.90;;;;;;12502231;23;20184;-90
2023/06/16 11:44:46;;;;;;;5.40;4.13;;;25.90;99.90;;;;;;12502160;23;20203;-76
2023/06/16 11:50:07;;;;;;;5.55;4.60;;;26.00;99.90;;;;;;12500981;23;20751;-77
2023/06/16 11:55:29;;;;;;;6.63;4.80;;;25.40;99.90;;;;;;12501158;23;20207;-78
2023/06/16 12:00:53;;;;;;;5.72;4.30;;;25.10;99.90;;;;;;12480500;23;20176;-78
2023/06/16 12:06:15;;;;;;;5.82;4.47;;;25.40;99.90;;;;;;12503098;23;20560;-77
2023/06/16 12:11:37;;;;;;;4.43;4.00;;;24.90;99.90;;;;;;12480714;23;20428;-75
2023/06/16 12:16:59;;;;;;;5.75;4.05;;;24.60;99.90;;;;;;12501684;23;20165;-75
2023/06/16 12:22:22;;;;;;;5.10;4.03;;;24.60;99.90;;;;;;12501968;23;20493;-83
2023/06/16 12:27:51;;;;;;;7.13;4.70;;;24.20;99.90;;;;;;12502576;23;20199;-81
2023/06/16 12:33:13;;;;;;;7.70;4.45;;;23.80;99.90;;;;;;12500485;23;20196;-78
2023/06/16 12:38:35;;;;;;;7.63;4.28;;;23.30;99.90;;;;;;12501472;23;20176;-80
2023/06/16 12:43:56;;;;;;;6.32;4.43;;;23.90;99.90;;;;;;12504799;23;20194;-79
2023/06/16 12:49:19;;;;;;;4.47;4.07;;;23.80;99.90;;;;;;12504396;23;20200;-77
2023/06/16 12:54:40;;;;;;;7.57;4.47;;;23.60;99.90;;;;;;12503344;23;20238;-77
2023/06/16 13:00:02;;;;;;;7.68;4.60;;;23.30;99.90;;;;;;12505694;23;20183;-83
2023/06/16 13:05:22;;;;;;;6.93;4.22;;;23.30;99.90;;;;;;12503626;23;20204;-75
2023/06/16 13:10:44;;;;;;;6.00;4.15;;;23.30;99.90;;;;;;12502835;23;20393;-82
2023/06/16 13:16:05;;;;;;;5.63;4.35;;;23.30;99.90;;;;;;12480210;23;20187;-79
2023/06/16 13:21:27;;;;;;;7.03;5.03;;;23.10;99.90;;;;;;12505121;23;20192;-79
2023/06/16 13:26:48;;;;;;;4.30;3.90;;;23.00;99.90;;;;;;12503339;23;20372;-76
2023/06/16 13:32:09;;;;;;;4.30;3.63;;;22.90;99.90;;;;;;12499859;23;20207;-79
2023/06/16 13:37:30;;;;;;;5.97;3.88;;;22.80;99.90;;;;;;12501441;23;20172;-81
2023/06/16 13:42:51;;;;;;;5.28;4.78;;;22.80;99.90;;;;;;12503870;23;20176;-77
2023/06/16 13:48:15;;;;;;;4.65;4.13;;;23.00;99.90;;;;;;12503594;23;20191;-82
2023/06/16 13:53:36;;;;;;;5.47;3.90;;;22.70;99.90;;;;;;12502518;23;20168;-77
2023/06/16 13:58:57;;;;;;;5.93;4.18;;;22.30;99.90;;;;;;12481442;23;20403;-79
2023/06/16 14:04:19;;;;;;;4.72;4.22;;;21.90;99.90;;;;;;12504252;23;20215;-77
2023/06/16 14:09:40;;;;;;;5.97;4.00;;;21.60;1.00;;;;;;12502696;23;20200;-81
2023/06/16 14:15:01;;;;;;;7.05;4.00;;;21.50;1.00;;;;;;12501689;23;20192;-83
2023/06/16 14:20:23;;;;;;;5.70;4.30;;;21.50;1.00;;;;;;12504241;23;20195;-82
2023/06/16 14:25:45;;;;;;;5.93;4.40;;;21.60;1.00;;;;;;12504508;23;20183;-86
2023/06/16 14:31:06;;;;;;;5.80;3.83;;;21.50;1.00;;;;;;12501735;23;20176;-83
2023/06/16 14:36:27;;;;;;;4.15;3.72;;;21.60;1.00;;;;;;12481832;23;20194;-80
2023/06/16 14:41:49;;;;;;;6.05;4.13;;;21.80;1.00;;;;;;12500236;23;20172;-80
2023/06/16 14:47:11;;;;;;;4.95;4.38;;;21.80;1.00;;;;;;12501560;23;20226;-79
2023/06/16 14:52:32;;;;;;;6.40;5.70;;;21.80;1.00;;;;;;12501867;23;20525;-79
2023/06/16 14:57:54;;;;;;;6.00;4.82;;;21.80;1.00;;;;;;12503056;23;20326;-80
2023/06/16 15:03:15;;;;;;;8.20;4.15;;;21.70;1.00;;;;;;12506160;23;20222;-85
2023/06/16 15:08:37;;;;;;;5.03;3.50;;;21.70;1.00;;;;;;12611426;23;20199;-79
2023/06/16 15:13:58;;;;;;;4.40;4.00;;;21.60;1.00;;;;;;12508787;23;20165;-78
2023/06/16 15:19:22;;;;;;;5.82;3.97;;;21.80;1.00;;;;;;12508367;23;20218;-78
2023/06/16 15:24:43;;;;;;;5.05;3.70;;;22.00;1.00;;;;;;12507519;23;20188;-79
2023/06/16 15:30:08;;;;;;;3.70;3.40;;;22.30;1.00;;;;;;12508977;23;20258;-79
2023/06/16 15:35:29;;;;;;;6.47;4.13;;;22.50;1.00;;;;;;12505549;23;20196;-79
2023/06/16 15:40:50;;;;;;;5.22;4.22;;;22.60;1.00;;;;;;12506572;23;20354;-78
2023/06/16 15:46:11;;;;;;;6.78;4.13;;;22.40;1.00;;;;;;12507962;23;20190;-79
2023/06/16 15:51:33;;;;;;;6.93;4.05;;;22.50;1.00;;;;;;12487238;23;20176;-79
2023/06/16 15:56:54;;;;;;;4.82;4.07;;;22.50;1.00;;;;;;12509098;23;20168;-79
2023/06/16 16:02:15;;;;;;;4.60;3.78;;;22.40;1.00;;;;;;12509218;23;20171;-79
2023/06/16 16:07:37;;;;;;;4.30;3.90;;;22.30;1.00;;;;;;12506215;23;20242;-80
2023/06/16 16:12:58;;;;;;;4.82;3.83;;;22.40;1.00;;;;;;12507358;23;20179;-79
2023/06/16 16:18:19;;;;;;;5.93;4.10;;;22.50;1.00;;;;;;12510660;23;20234;-78
2023/06/16 16:23:41;;;;;;;4.65;4.22;;;22.40;99.90;;;;;;12513698;23;20195;-79
2023/06/16 16:29:02;;;;;;;6.45;4.13;;;22.20;99.90;;;;;;12515047;23;20191;-78
2023/06/16 16:34:28;;;;;;;5.32;4.10;;;22.10;1.00;;;;;;12514770;23;20195;-80
2023/06/16 16:39:50;;;;;;;5.78;3.53;;;22.10;1.00;;;;;;12514750;23;20175;-79
2023/06/16 16:45:11;;;;;;;4.32;3.92;;;22.10;99.90;;;;;;12514980;23;20164;-78
2023/06/16 16:50:33;;;;;;;5.97;3.95;;;22.10;1.00;;;;;;12514360;23;20231;-79
2023/06/16 16:55:54;;;;;;;4.03;3.63;;;22.20;1.00;;;;;;12514812;23;20164;-79
2023/06/16 17:01:15;;;;;;;3.80;3.50;;;22.20;99.90;;;;;;12514680;23;20347;-79
2023/06/16 17:06:37;;;;;;;5.10;4.60;;;22.40;1.00;;;;;;12513972;23;20168;-79
2023/06/16 17:11:59;;;;;;;3.50;3.20;;;22.40;99.90;;;;;;12513148;23;20168;-78
2023/06/16 17:17:20;;;;;;;5.55;3.80;;;22.40;99.90;;;;;;12513147;23;20176;-79
2023/06/16 17:22:41;;;;;;;3.20;2.92;;;22.40;99.90;;;;;;12513864;23;20393;-79
2023/06/16 17:28:03;;;;;;;4.03;3.60;;;22.40;99.90;;;;;;12514332;23;20195;-79
2023/06/16 17:33:25;;;;;;;4.38;3.63;;;22.30;99.90;;;;;;12509030;23;20556;-79
2023/06/16 17:38:47;;;;;;;4.35;3.95;;;22.20;99.90;;;;;;12510470;23;20168;-78
2023/06/16 17:44:09;;;;;;;4.15;3.72;;;22.10;99.90;;;;;;12510605;23;20180;-78
2023/06/16 17:49:30;;;;;;;4.13;3.67;;;22.00;99.90;;;;;;12508436;23;20199;-78
2023/06/16 17:54:52;;;;;;;4.82;3.90;;;22.00;99.90;;;;;;12510225;23;20219;-79
2023/06/16 18:00:14;;;;;;;7.03;4.10;;;21.90;1.00;;;;;;12508965;23;20202;-78
2023/06/16 18:05:36;;;;;;;5.57;4.30;;;21.90;1.00;;;;;;12509913;23;20164;-78
2023/06/16 18:10:58;;;;;;;5.43;4.15;;;21.80;1.00;;;;;;12509044;23;20198;-78
2023/06/16 18:16:21;;;;;;;4.30;3.90;;;21.80;1.00;;;;;;12509956;23;20234;-78
2023/06/16 18:21:43;;;;;;;4.53;4.13;;;21.70;1.00;;;;;;12507722;23;20469;-78
2023/06/16 18:27:04;;;;;;;5.10;4.55;;;21.60;1.00;;;;;;12510004;23;20254;-78
2023/06/16 18:32:25;;;;;;;4.35;3.95;;;21.60;1.00;;;;;;12510557;23;20200;-78
2023/06/16 18:37:47;;;;;;;6.43;4.53;;;21.50;1.00;;;;;;12614755;23;20165;-78
2023/06/16 18:43:08;;;;;;;5.55;4.07;;;21.40;1.00;;;;;;12509050;23;20344;-78
2023/06/16 18:48:30;;;;;;;6.05;5.07;;;21.30;1.00;;;;;;12633540;23;20203;-79
2023/06/16 18:53:52;;;;;;;7.80;5.72;;;21.20;1.00;;;;;;12508705;23;20164;-79
2023/06/16 18:59:13;;;;;;;10.35;6.93;;;21.10;1.00;;;;;;12509694;23;20342;-78
2023/06/16 19:04:35;;;;;;;13.18;7.70;;;21.00;1.00;;;;;;12508748;23;20171;-79
2023/06/16 19:09:55;;;;;;;10.57;6.97;;;20.90;1.00;;;;;;12509658;23;20387;-78
2023/06/16 19:15:20;;;;;;;10.85;8.35;;;20.80;1.00;;;;;;12509842;23;20168;-78
2023/06/16 19:20:42;;;;;;;9.45;6.72;;;20.70;10.10;;;;;;12506878;23;20207;-78
2023/06/16 19:26:03;;;;;;;8.20;6.05;;;20.60;99.90;;;;;;12488308;23;20467;-78
2023/06/16 19:31:25;;;;;;;14.55;7.55;;;20.40;1.00;;;;;;12509107;23;20196;-78
2023/06/16 19:36:46;;;;;;;11.93;7.28;;;20.30;1.00;;;;;;12507267;23;20222;-79
2023/06/16 19:42:08;;;;;;;9.23;6.63;;;20.10;99.90;;;;;;12487961;23;20217;-79
2023/06/16 19:47:29;;;;;;;14.02;7.78;;;20.00;1.00;;;;;;12508101;23;20239;-79
2023/06/16 19:52:51;;;;;;;14.80;8.38;;;;;;;;;;12507070;23;20180;-78
2023/06/16 19:58:14;;;;;;;17.67;8.30;;;19.70;99.90;;;;;;12508007;23;20484;-78
2023/06/16 20:03:35;;;;;;;13.48;7.43;;;19.60;1.00;;;;;;12506902;23;20182;-78
2023/06/16 20:08:57;;;;;;;7.65;5.72;;;19.50;1.00;;;;;;12508661;23;20198;-78
2023/06/16 20:14:19;;;;;;;7.40;6.15;;;19.40;1.00;;;;;;12508802;23;20164;-78
2023/06/16 20:19:41;;;;;;;8.80;6.88;;;19.30;1.00;;;;;;12508632;23;20463;-79
2023/06/16 20:25:02;;;;;;;9.07;6.63;;;19.10;99.90;;;;;;12506566;23;20172;-79
2023/06/16 20:30:24;;;;;;;8.30;6.00;;;19.10;99.90;;;;;;12508401;23;20199;-79
2023/06/16 20:35:45;;;;;;;7.18;6.15;;;19.00;99.90;;;;;;12507651;23;20188;-78
2023/06/16 20:41:07;;;;;;;6.63;6.03;;;18.90;1.00;;;;;;12506852;23;20183;-78
2023/06/16 20:46:30;;;;;;;6.47;5.78;;;18.80;17.10;;;;;;12506037;23;20461;-78
2023/06/16 20:51:53;;;;;;;6.68;6.07;;;18.70;99.90;;;;;;12508114;23;20386;-78
2023/06/16 20:57:14;;;;;;;7.90;6.70;;;18.60;1.00;;;;;;12632177;23;20180;-78
2023/06/16 21:02:37;;;;;;;9.55;6.95;;;18.50;1.00;;;;;;12505746;23;20243;-78
2023/06/16 21:08:00;;;;;;;9.50;7.53;;;18.40;1.00;;;;;;12509838;23;20184;-79
2023/06/16 21:13:22;;;;;;;8.35;7.45;;;18.30;1.00;;;;;;12509521;23;20484;-79
2023/06/16 21:18:43;;;;;;;10.95;7.45;;;18.30;1.00;;;;;;12509892;23;20248;-78
2023/06/16 21:24:04;;;;;;;8.35;7.18;;;18.10;1.00;;;;;;12510420;23;20231;-78
2023/06/16 21:29:26;;;;;;;10.18;7.43;;;18.10;99.90;;;;;;12510217;23;20241;-78
2023/06/16 21:34:48;;;;;;;10.30;7.28;;;18.00;99.90;;;;;;12508589;23;20203;-78
2023/06/16 21:40:10;;;;;;;10.65;7.40;;;17.90;99.90;;;;;;12509262;23;20204;-78
2023/06/16 21:45:31;;;;;;;12.65;8.07;;;17.90;80.40;;;;;;12508619;23;20467;-78
2023/06/16 21:50:52;;;;;;;11.85;7.90;;;17.90;1.00;;;;;;12510396;23;20191;-78
2023/06/16 21:56:14;;;;;;;9.75;6.88;;;17.90;99.90;;;;;;12510424;23;20164;-78
2023/06/16 22:01:35;;;;;;;8.05;7.22;;;17.90;99.90;;;;;;12508801;23;20474;-78
2023/06/16 22:06:56;;;;;;;7.63;6.43;;;17.80;10.50;;;;;;12509281;23;20171;-79
2023/06/16 22:12:18;;;;;;;7.38;6.68;;;17.70;99.90;;;;;;12510297;23;20179;-78
2023/06/16 22:17:40;;;;;;;6.82;6.18;;;17.60;1.00;;;;;;12508567;23;20169;-79
2023/06/16 22:23:01;;;;;;;6.93;6.28;;;17.60;1.00;;;;;;12509181;23;20205;-78
2023/06/16 22:28:22;;;;;;;6.47;5.85;;;17.60;99.90;;;;;;12509924;23;20250;-79
2023/06/16 22:33:43;;;;;;;7.22;6.53;;;17.50;99.90;;;;;;12509704;23;20199;-78
2023/06/16 22:39:05;;;;;;;6.95;6.28;;;17.50;1.00;;;;;;12508683;23;20240;-79
2023/06/16 22:44:27;;;;;;;10.02;6.78;;;17.50;28.30;;;;;;12508723;23;20164;-78
2023/06/16 22:49:50;;;;;;;7.10;6.40;;;17.40;99.90;;;;;;12488303;23;20222;-78
2023/06/16 22:55:11;;;;;;;7.30;6.25;;;17.30;99.90;;;;;;12510009;23;20338;-78
2023/06/16 23:00:33;;;;;;;7.10;6.40;;;17.20;99.90;;;;;;12614635;23;20466;-78
2023/06/16 23:05:54;;;;;;;7.50;6.22;;;17.20;1.00;;;;;;12509071;23;20164;-79
2023/06/16 23:11:15;;;;;;;7.25;6.55;;;17.30;1.00;;;;;;12509622;23;20221;-78
2023/06/16 23:16:38;;;;;;;9.95;7.07;;;17.30;99.90;;;;;;12509064;23;20199;-77
2023/06/16 23:21:59;;;;;;;9.75;7.78;;;17.20;99.90;;;;;;12508784;23;20164;-78
2023/06/16 23:27:22;;;;;;;7.90;7.13;;;17.10;99.90;;;;;;12507814;23;20175;-78
2023/06/16 23:32:45;;;;;;;7.80;7.00;;;17.00;1.00;;;;;;12507691;23;20223;-78
2023/06/16 23:38:06;;;;;;;10.15;7.20;;;17.00;1.00;;;;;;12508505;23;20164;-78
2023/06/16 23:43:28;;;;;;;8.75;7.80;;;16.90;99.90;;;;;;12614208;23;20168;-78
2023/06/16 23:48:49;;;;;;;9.77;8.52;;;16.80;99.90;;;;;;12508340;23;20191;-78
2023/06/16 23:54:12;;;;;;;9.02;8.10;;;16.80;1.00;;;;;;12509210;23;20168;-78
2023/06/16 23:59:35;;;;;;;9.05;8.10;;;16.80;99.90;;;;;;12507246;23;20172;-77
